Time;durP1;ratioP1;P1;durP2;ratioP2;P2;SDS_P1;SDS_P2;PMS_P1;PMS_P2;Temp;Humidity;BMP_temperature;BMP_pressure;BME280_temperature;BME280_humidity;BME280_pressure;Samples;Min_cycle;Max_cycle;Signal;HPM_P1;HPM_P2
2021/12/27 18:58:49;;;;;;;68.17;25.25;;;;;;;-8.46;87.48;98009.57;1796446;79;34998;-64
2021/12/27 19:01:17;;;;;;;57.95;21.42;;;;;;;-8.45;87.37;98015.71;1755591;81;25407;-65
2021/12/27 19:03:46;;;;;;;38.38;14.93;;;;;;;-8.38;87.07;97999.77;1755679;81;27396;-66
2021/12/27 19:06:14;;;;;;;50.30;17.62;;;;;;;-8.27;86.69;98006.30;1755523;81;25503;-66
2021/12/27 19:08:46;;;;;;;43.00;16.02;;;;;;;-8.16;86.32;98006.16;1756571;81;25642;-63
2021/12/27 19:11:10;;;;;;;35.65;13.18;;;;;;;-8.09;85.94;98009.10;1755724;81;25596;-66
2021/12/27 19:13:36;;;;;;;51.85;18.15;;;;;;;-7.96;85.70;98003.45;1756818;81;25442;-62
2021/12/27 19:16:04;;;;;;;31.40;13.35;;;;;;;-7.86;85.38;97997.70;1756462;81;27260;-63
2021/12/27 19:18:31;;;;;;;49.35;17.65;;;;;;;-7.79;84.85;97997.66;1756808;81;25664;-64
2021/12/27 19:20:58;;;;;;;54.85;19.48;;;;;;;-7.73;84.61;98005.63;1756583;81;25402;-60
2021/12/27 19:23:25;;;;;;;47.43;18.90;;;;;;;-7.68;84.28;97997.81;1756353;81;25636;-60
2021/12/27 19:25:52;;;;;;;66.70;24.47;;;;;;;-7.66;84.16;98010.11;1756651;81;25388;-61
2021/12/27 19:28:19;;;;;;;53.42;18.48;;;;;;;-7.67;83.93;97998.64;1756415;81;27471;-62
2021/12/27 19:30:45;;;;;;;53.87;19.45;;;;;;;-7.62;84.07;97998.83;1756454;81;25673;-59
2021/12/27 19:33:12;;;;;;;36.33;12.93;;;;;;;-7.52;83.95;97999.69;1756644;81;25538;-60
2021/12/27 19:35:39;;;;;;;48.73;17.62;;;;;;;-7.47;83.65;97995.89;1756612;81;25631;-66
2021/12/27 19:38:13;;;;;;;45.50;16.23;;;;;;;-7.36;83.76;97985.59;1756540;81;25483;-64
2021/12/27 19:40:39;;;;;;;53.45;18.70;;;;;;;-7.29;83.30;97991.69;1756339;81;26029;-60
2021/12/27 19:43:07;;;;;;;66.20;22.40;;;;;;;-7.26;83.10;97993.92;1756358;81;25685;-66
2021/12/27 19:45:34;;;;;;;28.80;11.90;;;;;;;-7.22;82.97;97998.31;1756716;81;25633;-66
2021/12/27 19:48:02;;;;;;;42.45;16.00;;;;;;;-7.21;82.97;97995.94;1756406;81;25428;-66
2021/12/27 19:50:30;;;;;;;31.00;11.50;;;;;;;-7.15;82.79;97995.59;1756376;81;25670;-66
2021/12/27 19:52:58;;;;;;;54.38;18.75;;;;;;;-7.15;82.53;97999.08;1756805;81;27448;-67
2021/12/27 19:55:25;;;;;;;58.08;20.90;;;;;;;-7.18;82.55;97995.02;1756553;81;25466;-61
2021/12/27 19:57:54;;;;;;;50.08;18.05;;;;;;;-7.14;82.97;98000.70;1753932;81;25471;-62
2021/12/27 20:00:25;;;;;;;49.10;16.02;;;;;;;-7.05;82.76;98007.95;1751439;81;25593;-61
2021/12/27 20:02:57;;;;;;;34.73;14.03;;;;;;;-7.05;82.22;98005.28;1751731;81;25875;-62
2021/12/27 20:05:23;;;;;;;50.78;15.93;;;;;;;-7.08;82.24;98004.37;1749231;81;26080;-60
2021/12/27 20:07:50;;;;;;;52.15;18.00;;;;;;;-7.07;82.25;98010.83;1751553;81;25474;-60
2021/12/27 20:10:23;;;;;;;37.67;13.88;;;;;;;-7.06;82.59;97997.80;1750953;82;25609;-61
2021/12/27 20:12:55;;;;;;;36.38;13.72;;;;;;;-6.99;82.59;98004.93;1750650;81;25606;-62
2021/12/27 20:15:19;;;;;;;48.13;19.07;;;;;;;-6.97;82.04;97993.55;1750667;81;25640;-65
2021/12/27 20:17:46;;;;;;;50.50;19.32;;;;;;;-6.98;82.32;97991.39;1750726;82;27510;-65
2021/12/27 20:20:12;;;;;;;27.87;11.48;;;;;;;-6.97;82.32;97985.02;1750722;82;25732;-67
2021/12/27 20:22:40;;;;;;;51.77;19.35;;;;;;;-6.93;82.31;97982.76;1750868;81;25641;-66
2021/12/27 20:25:08;;;;;;;36.93;15.00;;;;;;;-6.95;81.94;97976.82;1750726;81;25626;-66
2021/12/27 20:27:35;;;;;;;36.88;14.05;;;;;;;-7.00;82.13;97968.68;1751174;81;25721;-66
2021/12/27 20:30:04;;;;;;;51.53;18.60;;;;;;;-7.02;82.27;97960.91;1750743;81;27424;-66
2021/12/27 20:32:31;;;;;;;59.80;20.97;;;;;;;-7.06;82.12;97960.51;1751048;81;25592;-62
2021/12/27 20:34:57;;;;;;;43.73;19.67;;;;;;;-7.07;82.28;97972.70;1750763;82;25455;-60
2021/12/27 20:37:26;;;;;;;57.75;20.55;;;;;;;-7.05;82.30;97977.31;1750900;82;25558;-62
2021/12/27 20:39:55;;;;;;;52.55;18.92;;;;;;;-7.01;82.40;97984.34;1750772;82;25712;-60
2021/12/27 20:42:22;;;;;;;37.25;14.25;;;;;;;-6.98;82.15;97987.91;1751146;81;27610;-61
2021/12/27 20:44:50;;;;;;;29.50;11.45;;;;;;;-6.99;82.15;97984.95;1750739;82;25464;-61
2021/12/27 20:47:17;;;;;;;41.50;15.95;;;;;;;-7.04;82.03;97989.59;1750724;82;25657;-61
2021/12/27 20:49:45;;;;;;;49.95;18.07;;;;;;;-7.04;82.01;97973.61;1750722;81;25580;-60
2021/12/27 20:52:12;;;;;;;27.75;11.68;;;;;;;-7.12;81.96;97970.69;1750992;82;25563;-60
2021/12/27 20:54:39;;;;;;;43.10;14.43;;;;;;;-7.15;82.24;97975.63;1750755;81;27542;-60
2021/12/27 20:57:07;;;;;;;42.45;16.25;;;;;;;-7.13;82.30;97971.73;1750247;81;25459;-61
2021/12/27 20:59:34;;;;;;;51.23;19.35;;;;;;;-7.13;82.15;97971.73;1742859;81;25449;-66
2021/12/27 21:02:01;;;;;;;28.55;10.20;;;;;;;-7.13;82.23;97980.23;1742838;82;25445;-66
2021/12/27 21:04:28;;;;;;;30.82;13.43;;;;;;;-7.13;82.22;97974.39;1742890;81;25661;-66
2021/12/27 21:06:57;;;;;;;56.73;19.67;;;;;;;-7.14;82.06;97976.73;1742982;82;27444;-65
2021/12/27 21:09:24;;;;;;;40.70;15.80;;;;;;;-7.20;82.24;97978.42;1742839;81;25765;-64
2021/12/27 21:11:51;;;;;;;39.60;15.05;;;;;;;-7.21;82.35;97978.12;1742858;82;25591;-60
2021/12/27 21:14:17;;;;;;;45.55;17.92;;;;;;;-7.20;82.25;97976.30;1742713;81;25436;-66
2021/12/27 21:16:45;;;;;;;32.13;14.60;;;;;;;-7.19;82.42;97981.37;1742855;82;25635;-67
2021/12/27 21:19:12;;;;;;;59.98;22.22;;;;;;;-7.19;82.23;97977.92;1742936;82;27247;-65
2021/12/27 21:21:40;;;;;;;43.05;17.17;;;;;;;-7.16;82.22;97979.33;1742881;82;25662;-66
2021/12/27 21:24:08;;;;;;;24.90;10.30;;;;;;;-7.14;82.16;97979.94;1742917;82;25581;-66
2021/12/27 21:26:35;;;;;;;45.78;18.20;;;;;;;-7.13;81.95;97983.72;1742957;81;25656;-61
2021/12/27 21:29:07;;;;;;;56.00;19.67;;;;;;;-7.15;81.98;97982.28;1742690;81;25464;-60
2021/12/27 21:31:31;;;;;;;44.70;19.27;;;;;;;-7.16;82.03;97982.81;1742526;81;25805;-61
2021/12/27 21:33:58;;;;;;;41.13;15.05;;;;;;;-7.19;81.99;97988.57;1742763;82;25614;-61
2021/12/27 21:36:24;;;;;;;26.87;12.10;;;;;;;-7.16;82.13;97981.98;1742831;82;25403;-61
2021/12/27 21:38:52;;;;;;;58.38;19.25;;;;;;;-7.14;82.03;97986.06;1742669;82;25641;-64
2021/12/27 21:41:19;;;;;;;31.55;11.25;;;;;;;-7.16;82.04;97983.32;1742888;81;25422;-67
2021/12/27 21:43:46;;;;;;;35.10;14.60;;;;;;;-7.15;82.28;97979.61;1742627;82;27473;-62
2021/12/27 21:46:12;;;;;;;55.98;21.45;;;;;;;-7.17;82.16;97978.50;1742597;82;25660;-61
2021/12/27 21:48:39;;;;;;;37.42;14.15;;;;;;;-7.17;82.19;97974.50;1742705;81;25605;-66
2021/12/27 21:51:05;;;;;;;45.03;15.80;;;;;;;-7.13;82.31;97978.89;1742786;81;25690;-60
2021/12/27 21:53:34;;;;;;;43.50;15.98;;;;;;;-7.08;82.24;97984.41;1742744;82;25396;-63
2021/12/27 21:56:00;;;;;;;38.73;13.60;;;;;;;-7.08;81.86;97979.88;1742845;81;28696;-64
2021/12/27 21:58:27;;;;;;;54.40;20.40;;;;;;;-7.09;82.00;97984.08;1742613;81;27153;-64
2021/12/27 22:00:54;;;;;;;53.98;18.87;;;;;;;-7.07;82.02;97986.85;1742846;81;25720;-64
2021/12/27 22:03:21;;;;;;;37.35;15.13;;;;;;;-7.02;81.92;97996.03;1742682;82;25408;-61
2021/12/27 22:05:48;;;;;;;72.40;24.52;;;;;;;-7.00;81.91;97985.99;1743169;82;25610;-60
2021/12/27 22:08:15;;;;;;;50.43;18.20;;;;;;;-6.96;82.05;97981.86;1742938;82;28514;-60
2021/12/27 22:10:46;;;;;;;46.65;17.98;;;;;;;-6.89;81.85;97981.28;1742531;82;25439;-60
2021/12/27 22:13:09;;;;;;;57.50;22.93;;;;;;;-6.88;81.55;97982.91;1742400;81;25583;-60
2021/12/27 22:15:36;;;;;;;67.20;24.95;;;;;;;-6.91;81.53;97979.34;1742638;82;25416;-61
2021/12/27 22:18:04;;;;;;;53.50;19.02;;;;;;;-6.88;81.62;97980.78;1743304;82;25435;-60
2021/12/27 22:20:32;;;;;;;39.95;16.82;;;;;;;-6.87;81.50;97983.73;1742663;81;27425;-63
2021/12/27 22:23:01;;;;;;;62.55;21.97;;;;;;;-6.90;81.53;97980.17;1742899;81;25639;-61
2021/12/27 22:25:29;;;;;;;45.63;18.05;;;;;;;-6.89;81.62;97983.13;1743045;82;25744;-66
2021/12/27 22:27:55;;;;;;;23.05;10.75;;;;;;;-6.83;81.64;97987.08;1743030;81;25792;-65
2021/12/27 22:30:23;;;;;;;39.67;14.25;;;;;;;-6.84;81.44;97985.45;1742856;82;25579;-64
2021/12/27 22:32:51;;;;;;;69.90;22.20;;;;;;;-6.86;81.44;97986.69;1742890;82;27358;-66
2021/12/27 22:35:19;;;;;;;42.70;14.45;;;;;;;-6.84;81.54;97980.63;1742614;81;25445;-60
2021/12/27 22:37:47;;;;;;;49.88;18.60;;;;;;;-6.78;81.60;97969.62;1742898;81;25436;-66
2021/12/27 22:40:15;;;;;;;40.75;17.87;;;;;;;-6.82;81.61;97970.05;1742637;82;27190;-63
2021/12/27 22:42:42;;;;;;;47.73;17.10;;;;;;;-6.78;81.53;97977.10;1743264;81;25712;-62
2021/12/27 22:45:14;;;;;;;35.23;11.70;;;;;;;-6.77;81.53;97980.59;1743070;82;27987;-61
2021/12/27 22:47:39;;;;;;;40.55;16.62;;;;;;;-6.77;81.54;97968.61;1742586;81;25464;-61
2021/12/27 22:50:07;;;;;;;55.63;21.75;;;;;;;-6.81;81.66;97969.04;1743130;81;25637;-60
2021/12/27 22:52:33;;;;;;;50.95;19.70;;;;;;;-6.78;81.83;97973.11;1743087;82;25698;-60
2021/12/27 22:55:00;;;;;;;34.65;14.05;;;;;;;-6.72;81.84;97976.74;1742728;82;25404;-62
2021/12/27 22:57:26;;;;;;;30.68;12.47;;;;;;;-6.66;81.72;97969.75;1742754;82;27424;-61
2021/12/27 22:59:53;;;;;;;48.92;19.70;;;;;;;-6.65;81.65;97960.17;1749802;81;25744;-61
2021/12/27 23:02:19;;;;;;;42.13;15.88;;;;;;;-6.65;81.69;97952.71;1750939;81;25924;-60
2021/12/27 23:04:46;;;;;;;56.13;19.95;;;;;;;-6.63;81.78;97947.95;1750987;81;25607;-64
2021/12/27 23:07:12;;;;;;;60.30;22.85;;;;;;;-6.65;81.67;97952.71;1751082;81;25416;-66
2021/12/27 23:09:39;;;;;;;43.75;17.35;;;;;;;-6.68;81.68;97956.64;1750558;82;27403;-60
2021/12/27 23:12:09;;;;;;;56.35;20.00;;;;;;;-6.65;81.67;97952.71;1750523;82;25606;-62
2021/12/27 23:14:36;;;;;;;64.50;22.98;;;;;;;-6.58;81.83;97958.80;1750818;81;25452;-60
2021/12/27 23:17:03;;;;;;;70.28;24.82;;;;;;;-6.52;81.58;97961.91;1750651;81;25462;-61
2021/12/27 23:19:30;;;;;;;47.95;16.62;;;;;;;-6.47;81.57;97963.92;1750863;82;25451;-60
2021/12/27 23:21:56;;;;;;;56.30;21.10;;;;;;;-6.47;81.26;97958.09;1750603;81;27482;-60
2021/12/27 23:24:23;;;;;;;64.85;23.85;;;;;;;-6.51;81.23;97952.88;1750517;82;25616;-63
2021/12/27 23:26:49;;;;;;;33.75;13.80;;;;;;;-6.55;81.31;97955.69;1750793;82;25614;-62
2021/12/27 23:29:15;;;;;;;53.80;23.40;;;;;;;-6.56;81.51;97954.86;1750669;82;25661;-60
2021/12/27 23:31:42;;;;;;;51.10;21.02;;;;;;;-6.57;81.63;97955.91;1750611;82;25677;-61
2021/12/27 23:34:09;;;;;;;36.30;14.60;;;;;;;-6.54;81.51;97951.98;1750646;82;27458;-63
2021/12/27 23:36:41;;;;;;;53.33;20.37;;;;;;;-6.56;81.51;97961.52;1750550;82;25594;-61
2021/12/27 23:39:10;;;;;;;61.37;21.77;;;;;;;-6.57;81.73;97960.41;1750507;81;25679;-60
2021/12/27 23:41:39;;;;;;;48.83;19.10;;;;;;;-6.55;81.74;97954.36;1750985;82;25519;-63
2021/12/27 23:44:07;;;;;;;31.87;11.50;;;;;;;-6.53;81.67;97946.14;1750496;81;25396;-60
2021/12/27 23:46:34;;;;;;;62.33;22.52;;;;;;;-6.55;81.69;97941.86;1750850;82;27478;-65
2021/12/27 23:49:01;;;;;;;44.67;17.10;;;;;;;-6.52;81.78;97947.25;1750658;82;25652;-62
2021/12/27 23:51:27;;;;;;;47.20;17.42;;;;;;;-6.50;81.72;97951.03;1750755;81;25625;-60
2021/12/27 23:53:54;;;;;;;43.95;18.42;;;;;;;-6.51;81.66;97951.54;1750948;82;25638;-60
2021/12/27 23:56:21;;;;;;;54.80;21.42;;;;;;;-6.51;81.63;97950.20;1750736;81;25594;-60
2021/12/27 23:58:48;;;;;;;53.05;19.40;;;;;;;-6.50;81.68;97950.53;1747862;81;27540;-61
